Time;durP1;ratioP1;P1;durP2;ratioP2;P2;SDS_P1;SDS_P2;PMS_P1;PMS_P2;Temp;Humidity;BMP_temperature;BMP_pressure;BME280_temperature;BME280_humidity;BME280_pressure;Samples;Min_cycle;Max_cycle;Signal;HPM_P1;HPM_P2
2021/12/14 00:01:20;;;;;;;52.67;48.27;;;;;;;10.48;100.00;102669.89;1893654;74;86453;-76
2021/12/14 00:07:09;;;;;;;56.00;51.87;;;;;;;10.52;100.00;102675.80;1831711;76;85191;-75
2021/12/14 00:12:58;;;;;;;53.77;49.70;;;;;;;10.49;100.00;102680.73;1894675;73;86486;-76
2021/12/14 00:18:41;;;;;;;51.23;47.03;;;;;;;10.48;100.00;102685.98;1931873;73;85313;-75
2021/12/14 00:24:26;;;;;;;51.27;46.93;;;;;;;10.63;100.00;102670.78;1983512;71;39849;-71
2021/12/14 00:30:12;;;;;;;53.23;48.53;;;;;;;10.57;100.00;102673.16;1838389;76;86546;-70
2021/12/14 00:35:56;;;;;;;54.07;49.67;;;;;;;10.64;100.00;102663.61;1873124;74;86309;-71
2021/12/14 00:41:42;;;;;;;52.60;48.43;;;;;;;10.67;100.00;102661.72;1909696;73;86893;-71
2021/12/14 00:47:28;;;;;;;53.83;49.77;;;;;;;10.71;100.00;102659.30;1983095;71;39789;-76
2021/12/14 00:53:13;;;;;;;54.57;50.23;;;;;;;10.81;100.00;102665.95;1854815;76;86904;-76
2021/12/14 00:58:59;;;;;;;50.57;46.70;;;;;;;10.83;100.00;102676.81;1797359;78;86440;-76
2021/12/14 01:04:47;;;;;;;52.03;47.73;;;;;;;10.63;100.00;102659.66;1929330;73;86508;-71
2021/12/14 01:10:33;;;;;;;52.37;48.17;;;;;;;10.68;100.00;102657.02;1948092;73;86544;-70
2021/12/14 01:16:31;;;;;;;53.03;48.67;;;;;;;10.59;100.00;102659.31;1976726;71;39541;-76
2021/12/14 01:22:31;;;;;;;52.03;47.93;;;;;;;10.65;100.00;102666.70;1971751;71;86154;-76
2021/12/14 01:28:10;;;;;;;51.23;47.13;;;;;;;10.69;100.00;102674.84;1842457;76;86755;-75
2021/12/14 01:30:51;;;;;;;52.77;48.53;;;;;;;10.67;100.00;102691.45;1807159;77;938868;-71
2021/12/14 01:36:38;;;;;;;53.03;48.63;;;;;;;10.74;100.00;102687.45;1983378;71;39575;-71
2021/12/14 01:42:21;;;;;;;51.87;47.77;;;;;;;10.77;100.00;102696.72;1944403;71;39652;-76
2021/12/14 01:48:08;;;;;;;53.50;49.07;;;;;;;10.80;100.00;102700.39;1831171;76;86009;-76
2021/12/14 01:53:57;;;;;;;52.20;48.30;;;;;;;10.82;100.00;102701.56;1877208;74;86036;-76
2021/12/14 01:59:46;;;;;;;51.60;47.70;;;;;;;10.92;100.00;102705.41;1933757;73;86509;-71
2021/12/14 02:05:41;;;;;;;52.77;48.80;;;;;;;10.83;100.00;102699.05;1942454;73;86458;-76
2021/12/14 02:14:38;;;;;;;52.93;48.93;;;;;;;10.83;100.00;102719.36;1896796;75;86338;-76
2021/12/14 02:17:11;;;;;;;52.93;48.87;;;;;;;10.76;100.00;102724.20;1811946;76;937616;-76
2021/12/14 02:19:43;;;;;;;52.13;48.20;;;;;;;10.81;100.00;102715.15;1800925;78;940795;-76
2021/12/14 02:22:15;;;;;;;51.90;47.90;;;;;;;10.64;100.00;102713.63;1738002;78;940711;-71
2021/12/14 02:24:48;;;;;;;50.13;46.30;;;;;;;10.57;100.00;102712.06;1802555;78;941008;-70
2021/12/14 02:27:20;;;;;;;52.35;48.55;;;;;;;10.65;100.00;102707.53;1790779;78;940919;-76
2021/12/14 02:29:52;;;;;;;50.57;47.00;;;;;;;10.59;100.00;102708.48;1751974;79;940979;-71
2021/12/14 02:32:25;;;;;;;50.67;46.97;;;;;;;10.62;100.00;102710.23;1745745;80;940931;-76
2021/12/14 02:35:00;;;;;;;51.80;48.00;;;;;;;10.52;100.00;102707.22;1785812;79;939070;-70
2021/12/14 02:37:40;;;;;;;52.37;48.30;;;;;;;10.50;100.00;102710.22;1786071;79;939477;-76
2021/12/14 02:40:19;;;;;;;51.63;47.70;;;;;;;10.43;100.00;102712.28;1783674;79;940990;-76
2021/12/14 02:46:10;;;;;;;48.97;45.20;;;;;;;10.52;100.00;102704.44;1829032;76;86284;-76
2021/12/14 02:51:59;;;;;;;51.93;48.10;;;;;;;10.58;100.00;102704.00;1888718;74;85827;-71
2021/12/14 02:57:47;;;;;;;52.30;48.30;;;;;;;10.62;100.00;102717.18;1948503;72;86205;-69
2021/12/14 03:03:33;;;;;;;52.17;48.57;;;;;;;10.52;100.00;102712.78;1912416;72;86802;-76
2021/12/14 03:09:33;;;;;;;50.73;47.37;;;;;;;10.61;100.00;102704.36;1890442;74;86309;-75
2021/12/14 03:15:09;;;;;;;52.23;48.73;;;;;;;10.53;100.00;102714.98;1813227;76;85473;-75
2021/12/14 03:20:56;;;;;;;50.33;47.07;;;;;;;10.65;100.00;102719.50;1884440;74;85666;-70
2021/12/14 03:26:45;;;;;;;50.10;46.50;;;;;;;10.83;100.00;102712.41;1906200;73;85006;-70
2021/12/14 03:32:32;;;;;;;51.17;47.47;;;;;;;10.87;100.00;102715.55;1946959;71;86296;-76
2021/12/14 03:38:19;;;;;;;49.67;46.43;;;;;;;10.97;100.00;102718.59;1905117;74;86526;-75
2021/12/14 03:44:11;;;;;;;52.07;48.63;;;;;;;10.87;100.00;102723.36;1835923;76;86638;-71
2021/12/14 03:50:03;;;;;;;50.23;46.53;;;;;;;11.01;100.00;102723.11;1800018;77;85532;-76
2021/12/14 03:55:52;;;;;;;50.50;47.00;;;;;;;11.14;100.00;102729.81;1884124;75;86209;-71
2021/12/14 04:01:40;;;;;;;49.00;45.60;;;;;;;11.18;100.00;102714.33;1908992;72;86602;-75
2021/12/14 04:10:37;;;;;;;49.57;46.13;;;;;;;11.08;100.00;102719.11;1898722;75;86571;-75
2021/12/14 04:13:09;;;;;;;50.57;47.00;;;;;;;10.89;100.00;102736.48;1838058;75;938909;-70
2021/12/14 04:15:41;;;;;;;49.30;45.77;;;;;;;11.05;100.00;102728.48;1842368;75;940807;-70
2021/12/14 04:18:12;;;;;;;48.87;45.53;;;;;;;11.02;100.00;102726.20;1799047;78;940941;-75
2021/12/14 04:20:45;;;;;;;49.00;45.33;;;;;;;11.00;100.00;102731.14;1790593;79;940840;-75
2021/12/14 04:23:18;;;;;;;48.23;44.75;;;;;;;10.87;100.00;102728.06;1779054;79;940916;-75
2021/12/14 04:25:50;;;;;;;49.23;45.77;;;;;;;10.74;100.00;102733.89;1790705;79;941324;-69
2021/12/14 04:28:24;;;;;;;48.58;45.17;;;;;;;10.70;100.00;102743.23;1778936;79;940860;-69
2021/12/14 04:30:54;;;;;;;48.27;44.87;;;;;;;10.67;100.00;102739.55;1790680;79;938994;-73
2021/12/14 04:33:28;;;;;;;47.63;43.93;;;;;;;10.52;100.00;102747.52;1778921;79;941305;-74
2021/12/14 04:36:02;;;;;;;45.43;42.10;;;;;;;10.62;100.00;102742.73;1745775;80;938842;-76
2021/12/14 04:38:37;;;;;;;48.27;44.87;;;;;;;10.60;100.00;102750.48;1790602;79;941024;-70
2021/12/14 04:52:27;;;;;;;49.73;46.47;;;;;;;10.45;100.00;102753.70;1761749;80;940906;-74
2021/12/14 04:55:00;;;;;;;48.77;44.87;;;;;;;10.49;100.00;102752.98;1808018;78;938999;-70
2021/12/14 04:57:33;;;;;;;49.23;45.73;;;;;;;10.58;100.00;102754.88;1783191;78;941122;-75
2021/12/14 05:03:31;;;;;;;47.83;43.97;;;;;;;10.42;100.00;102748.63;1971777;71;39668;-74
2021/12/14 05:09:21;;;;;;;48.03;44.33;;;;;;;10.38;100.00;102739.92;1958251;71;39528;-70
2021/12/14 05:15:11;;;;;;;49.67;46.07;;;;;;;10.47;100.00;102745.98;1979166;70;86404;-70
2021/12/14 05:20:57;;;;;;;49.43;45.73;;;;;;;10.16;100.00;102731.83;1881124;74;86363;-75
2021/12/14 05:26:48;;;;;;;49.27;45.97;;;;;;;10.48;100.00;102749.89;1919601;73;86468;-76
2021/12/14 05:32:32;;;;;;;53.67;49.63;;;;;;;10.52;100.00;102746.13;1913332;73;86429;-70
2021/12/14 05:38:22;;;;;;;50.07;46.27;;;;;;;10.46;100.00;102744.28;1893457;74;86614;-70
2021/12/14 05:44:06;;;;;;;49.53;45.93;;;;;;;10.28;100.00;102756.31;1830732;76;86785;-70
2021/12/14 05:49:50;;;;;;;51.63;47.70;;;;;;;10.41;100.00;102745.00;1885702;75;86112;-70
2021/12/14 05:55:40;;;;;;;52.10;48.20;;;;;;;10.25;100.00;102747.61;1907039;72;86154;-76
2021/12/14 06:01:31;;;;;;;51.67;47.77;;;;;;;10.34;100.00;102756.77;1983725;71;39634;-76
2021/12/14 06:07:18;;;;;;;50.03;46.00;;;;;;;10.26;100.00;102764.05;1894676;74;85537;-70
2021/12/14 06:13:01;;;;;;;51.47;47.13;;;;;;;10.26;100.00;102766.83;1892603;74;86411;-76
2021/12/14 06:18:46;;;;;;;54.90;50.40;;;;;;;10.12;100.00;102775.54;1901549;73;86477;-70
2021/12/14 06:24:32;;;;;;;51.13;47.33;;;;;;;10.00;100.00;102776.35;1868284;76;86205;-70
2021/12/14 06:30:20;;;;;;;51.87;47.57;;;;;;;9.92;100.00;102778.61;1978597;71;40334;-71
2021/12/14 06:36:09;;;;;;;54.37;50.17;;;;;;;10.03;100.00;102782.81;1846174;76;86701;-70
2021/12/14 06:41:54;;;;;;;51.43;47.33;;;;;;;10.12;100.00;102797.76;1871685;74;86472;-76
2021/12/14 06:47:40;;;;;;;52.83;48.57;;;;;;;10.27;100.00;102788.52;1908625;74;86255;-74
2021/12/14 06:53:28;;;;;;;52.00;47.70;;;;;;;10.13;100.00;102792.52;1978167;71;40239;-74
2021/12/14 06:59:20;;;;;;;52.77;48.63;;;;;;;9.97;100.00;102803.17;1955401;72;85382;-75
2021/12/14 07:05:07;;;;;;;58.73;54.13;;;;;;;10.06;100.00;102805.09;1847459;76;86810;-74
2021/12/14 07:10:50;;;;;;;58.90;54.30;;;;;;;9.93;100.00;102803.88;1885265;74;85345;-70
2021/12/14 07:16:39;;;;;;;61.93;57.43;;;;;;;9.86;100.00;102801.20;1926889;73;86255;-75
2021/12/14 07:22:40;;;;;;;63.53;58.83;;;;;;;10.01;100.00;102816.08;1982920;71;39476;-71
2021/12/14 07:28:30;;;;;;;60.27;55.80;;;;;;;10.05;100.00;102816.73;1942965;71;39618;-71
2021/12/14 07:34:16;;;;;;;57.90;53.30;;;;;;;10.11;100.00;102823.83;1890819;74;86112;-70
2021/12/14 07:40:01;;;;;;;56.10;52.37;;;;;;;10.30;100.00;102827.77;1795742;78;86340;-77
2021/12/14 07:48:57;;;;;;;55.83;51.63;;;;;;;10.43;100.00;102841.47;1962627;72;86342;-70
2021/12/14 07:54:46;;;;;;;55.33;51.30;;;;;;;10.41;100.00;102843.63;1853073;74;86490;-69
2021/12/14 08:00:35;;;;;;;54.50;49.93;;;;;;;10.50;100.00;102837.20;1916261;74;86506;-74
2021/12/14 08:06:20;;;;;;;57.27;53.17;;;;;;;10.60;100.00;102840.80;1978930;71;40333;-75
2021/12/14 08:12:05;;;;;;;55.17;50.73;;;;;;;10.57;100.00;102851.01;1895413;74;85820;-74
2021/12/14 08:18:00;;;;;;;59.07;54.33;;;;;;;10.57;100.00;102844.06;1869374;76;85669;-76
2021/12/14 08:26:59;;;;;;;59.40;55.07;;;;;;;10.81;100.00;102856.39;1875973;74;85764;-69
2021/12/14 08:32:44;;;;;;;57.27;52.27;;;;;;;10.92;100.00;102864.44;1920154;73;86188;-78
2021/12/14 08:38:31;;;;;;;62.93;58.13;;;;;;;10.94;100.00;102872.86;1837056;77;85505;-71
2021/12/14 08:44:21;;;;;;;56.27;51.10;;;;;;;11.12;100.00;102878.04;1984423;71;39633;-71
2021/12/14 08:50:09;;;;;;;60.10;55.10;;;;;;;11.00;100.00;102872.43;1836416;76;86475;-77
2021/12/14 08:55:57;;;;;;;52.67;48.27;;;;;;;11.08;100.00;102873.47;1882115;73;86619;-70
2021/12/14 09:01:44;;;;;;;54.57;50.10;;;;;;;11.19;100.00;102884.33;1899570;72;86245;-71
2021/12/14 09:10:49;;;;;;;54.93;49.87;;;;;;;11.21;100.00;102881.59;1905002;72;86598;-71
2021/12/14 09:16:35;;;;;;;53.40;48.57;;;;;;;11.32;100.00;102889.67;1909935;74;87288;-78
2021/12/14 09:22:24;;;;;;;57.93;53.10;;;;;;;11.38;100.00;102885.94;1977499;71;39533;-72
2021/12/14 09:28:10;;;;;;;53.50;48.87;;;;;;;11.46;100.00;102893.92;1826740;76;86596;-77
2021/12/14 09:33:59;;;;;;;53.57;48.73;;;;;;;11.51;100.00;102889.02;1887951;73;86505;-77
2021/12/14 09:39:47;;;;;;;52.43;48.13;;;;;;;11.67;100.00;102887.75;1919511;73;86457;-80
2021/12/14 09:45:42;;;;;;;55.27;50.77;;;;;;;11.80;100.00;102897.27;1922911;72;86402;-74
2021/12/14 09:51:29;;;;;;;55.57;50.83;;;;;;;11.86;100.00;102898.21;1976587;71;39580;-69
2021/12/14 09:57:18;;;;;;;54.97;49.57;;;;;;;11.98;100.00;102910.75;1809261;78;85646;-75
2021/12/14 10:03:04;;;;;;;57.37;52.00;;;;;;;12.05;100.00;102908.13;1881213;74;86527;-69
2021/12/14 10:08:58;;;;;;;58.47;53.30;;;;;;;12.11;100.00;102921.60;1883117;73;86580;-69
2021/12/14 10:14:45;;;;;;;56.80;52.07;;;;;;;12.18;100.00;102933.48;1862511;76;86627;-75
2021/12/14 10:20:33;;;;;;;55.10;50.33;;;;;;;12.34;100.00;102942.46;1870587;74;86622;-76
2021/12/14 10:26:19;;;;;;;54.37;50.03;;;;;;;12.38;100.00;102938.09;1979021;71;39748;-70
2021/12/14 10:31:49;;;;;;;53.07;48.43;;;;;;;12.42;100.00;102937.05;1912556;72;86634;-70
2021/12/14 10:37:21;;;;;;;52.93;48.33;;;;;;;12.42;100.00;102930.08;1868316;74;39606;-69
2021/12/14 10:43:12;;;;;;;54.17;49.57;;;;;;;12.54;100.00;102932.27;1846049;76;86365;-70
2021/12/14 10:48:34;;;;;;;56.50;51.73;;;;;;;12.57;100.00;102927.62;1900278;73;86895;-75
2021/12/14 10:54:04;;;;;;;55.70;51.03;;;;;;;12.66;100.00;102925.55;1917201;74;39500;-69
2021/12/14 10:59:34;;;;;;;54.90;50.70;;;;;;;12.70;100.00;102923.14;1900618;74;86317;-69
2021/12/14 11:05:01;;;;;;;54.17;49.37;;;;;;;12.81;100.00;102919.98;1917272;74;39634;-76
2021/12/14 11:10:29;;;;;;;55.50;50.80;;;;;;;12.82;100.00;102913.32;1912168;74;39772;-69
2021/12/14 11:13:02;;;;;;;53.50;49.27;;;;;;;12.86;100.00;102921.48;1862651;76;936747;-70
2021/12/14 11:18:31;;;;;;;55.30;51.10;;;;;;;12.87;100.00;102912.03;1911534;74;39509;-74
2021/12/14 11:23:57;;;;;;;54.63;50.10;;;;;;;12.90;100.00;102912.91;1918046;74;39545;-76
2021/12/14 11:29:23;;;;;;;54.93;50.53;;;;;;;13.00;100.00;102912.56;1913116;74;40014;-78
2021/12/14 11:34:50;;;;;;;53.33;49.33;;;;;;;12.99;100.00;102910.86;1852601;74;85571;-69
2021/12/14 11:40:20;;;;;;;48.93;44.93;;;;;;;13.08;100.00;102912.69;1913628;74;39565;-71
2021/12/14 11:45:48;;;;;;;55.90;51.60;;;;;;;13.15;100.00;102907.27;1912976;72;86542;-78
2021/12/14 11:51:24;;;;;;;50.77;46.93;;;;;;;13.24;100.00;102907.70;1873104;74;39573;-78
2021/12/14 11:56:51;;;;;;;49.93;46.33;;;;;;;13.28;100.00;102913.07;1763077;79;86275;-78
2021/12/14 12:02:17;;;;;;;52.10;48.20;;;;;;;13.31;100.00;102905.58;1913943;74;39692;-71
2021/12/14 12:13:40;;;;;;;47.13;43.67;;;;;;;13.42;100.00;102890.70;1900387;74;86820;-70
2021/12/14 12:19:14;;;;;;;46.90;43.20;;;;;;;13.49;100.00;102883.53;1915329;73;40454;-79
2021/12/14 12:24:42;;;;;;;47.67;43.97;;;;;;;13.45;100.00;102872.58;1930015;73;86460;-71
2021/12/14 12:30:38;;;;;;;47.53;43.90;;;;;;;13.52;100.00;102862.92;1912646;74;39500;-71
2021/12/14 12:36:21;;;;;;;46.33;42.83;;;;;;;13.48;100.00;102858.95;1913564;74;39437;-70
2021/12/14 12:41:51;;;;;;;47.30;43.73;;;;;;;13.51;100.00;102846.45;1781585;79;86490;-71
2021/12/14 12:47:17;;;;;;;46.00;42.30;;;;;;;13.49;100.00;102852.27;1914287;74;39600;-71
2021/12/14 12:52:43;;;;;;;46.47;43.07;;;;;;;13.54;100.00;102842.58;1937969;73;85785;-71
2021/12/14 12:58:12;;;;;;;45.93;42.60;;;;;;;13.52;100.00;102840.58;1915048;74;39765;-77
2021/12/14 13:03:43;;;;;;;47.03;43.53;;;;;;;13.55;100.00;102834.51;1929778;72;86619;-70
2021/12/14 13:09:07;;;;;;;47.63;44.03;;;;;;;13.57;100.00;102827.25;1915803;74;40207;-76
2021/12/14 13:14:36;;;;;;;46.80;43.07;;;;;;;13.56;100.00;102820.00;1943045;74;86362;-72
2021/12/14 13:20:02;;;;;;;48.23;44.53;;;;;;;13.51;100.00;102810.14;1917524;74;39609;-72
2021/12/14 13:25:35;;;;;;;50.27;46.53;;;;;;;13.56;100.00;102813.83;1912391;73;39676;-77
2021/12/14 13:31:00;;;;;;;50.67;46.97;;;;;;;13.50;100.00;102809.30;1891559;74;39707;-78
2021/12/14 13:36:26;;;;;;;50.27;46.50;;;;;;;13.47;100.00;102800.59;1912261;74;39803;-70
2021/12/14 13:42:17;;;;;;;49.93;46.13;;;;;;;13.37;100.00;102797.09;1953317;70;86223;-69
2021/12/14 13:47:45;;;;;;;49.40;46.00;;;;;;;13.40;100.00;102801.31;1938104;72;86293;-68
2021/12/14 13:53:13;;;;;;;48.50;44.90;;;;;;;13.41;100.00;102804.41;1914693;74;39548;-75
2021/12/14 13:58:45;;;;;;;50.37;46.90;;;;;;;13.42;100.00;102803.31;1897091;75;86637;-71
2021/12/14 14:04:15;;;;;;;49.20;45.77;;;;;;;13.38;100.00;102797.40;1914867;73;39638;-71
2021/12/14 14:09:41;;;;;;;48.77;45.33;;;;;;;13.36;100.00;102794.00;1938021;73;86872;-71
2021/12/14 14:15:17;;;;;;;50.30;46.77;;;;;;;13.44;100.00;102796.36;1888506;74;40270;-75
2021/12/14 14:20:51;;;;;;;48.13;44.80;;;;;;;13.46;100.00;102789.13;1776226;80;86801;-76
2021/12/14 14:26:21;;;;;;;47.00;43.70;;;;;;;13.47;100.00;102791.67;1864399;74;39585;-71
2021/12/14 14:31:50;;;;;;;46.57;43.40;;;;;;;13.51;100.00;102794.79;1942916;71;87192;-71
2021/12/14 14:37:30;;;;;;;47.43;44.30;;;;;;;13.52;100.00;102788.93;1912511;74;39767;-76
2021/12/14 14:43:03;;;;;;;48.23;45.13;;;;;;;13.47;100.00;102789.43;1918075;74;39539;-76
2021/12/14 14:48:29;;;;;;;47.53;44.37;;;;;;;13.48;100.00;102794.73;1883612;74;39537;-75
2021/12/14 14:53:54;;;;;;;50.57;46.87;;;;;;;13.50;100.00;102795.34;1772743;79;86310;-76
2021/12/14 14:59:19;;;;;;;50.23;46.67;;;;;;;13.45;100.00;102795.26;1912992;74;39635;-71
2021/12/14 15:05:04;;;;;;;48.23;44.73;;;;;;;13.45;100.00;102799.45;1928712;72;86088;-74
2021/12/14 15:10:49;;;;;;;48.97;45.60;;;;;;;13.46;100.00;102798.90;1846165;76;86688;-75
2021/12/14 15:16:37;;;;;;;49.70;46.60;;;;;;;13.43;100.00;102798.03;1912162;74;39482;-71
2021/12/14 15:22:59;;;;;;;48.70;45.40;;;;;;;13.44;100.00;102794.95;1878611;73;86568;-75
2021/12/14 15:28:26;;;;;;;47.13;43.93;;;;;;;13.50;100.00;102798.12;1912140;74;39679;-74
2021/12/14 15:33:53;;;;;;;47.50;44.33;;;;;;;13.51;100.00;102796.19;1912016;72;86638;-74
2021/12/14 15:39:19;;;;;;;47.00;44.07;;;;;;;13.46;100.00;102797.50;1913702;73;39538;-71
2021/12/14 15:44:45;;;;;;;46.30;43.10;;;;;;;13.47;100.00;102802.84;1871482;75;86308;-71
2021/12/14 15:50:21;;;;;;;48.57;45.07;;;;;;;13.44;100.00;102798.30;1915625;74;39504;-70
2021/12/14 15:56:23;;;;;;;48.70;45.43;;;;;;;13.48;100.00;102810.09;1914609;73;39568;-73
2021/12/14 16:04:47;;;;;;;46.63;43.53;;;;;;;13.40;100.00;102813.88;1914168;75;86443;-78
2021/12/14 16:10:21;;;;;;;48.37;45.23;;;;;;;13.40;100.00;102822.25;1914542;74;39622;-73
2021/12/14 16:15:48;;;;;;;47.50;44.30;;;;;;;13.36;100.00;102818.28;1776415;79;85921;-70
2021/12/14 16:21:16;;;;;;;49.93;46.53;;;;;;;13.37;100.00;102826.41;1914179;74;39434;-70
2021/12/14 16:26:41;;;;;;;46.83;43.67;;;;;;;13.36;100.00;102825.26;1938068;73;86256;-75
2021/12/14 16:32:09;;;;;;;46.10;42.80;;;;;;;13.34;100.00;102822.74;1915961;74;39519;-74
2021/12/14 16:37:36;;;;;;;45.13;42.13;;;;;;;13.29;100.00;102824.05;1900465;73;86448;-74
2021/12/14 16:43:06;;;;;;;46.80;43.50;;;;;;;13.37;100.00;102832.54;1881442;74;39505;-73
2021/12/14 16:48:33;;;;;;;46.97;43.77;;;;;;;13.38;100.00;102835.09;1900654;75;86076;-70
2021/12/14 16:54:02;;;;;;;47.87;44.63;;;;;;;13.31;100.00;102839.98;1891291;74;39585;-74
2021/12/14 16:59:31;;;;;;;46.57;43.37;;;;;;;13.29;100.00;102835.77;1911687;73;39506;-68
2021/12/14 17:05:01;;;;;;;45.80;42.70;;;;;;;13.32;100.00;102839.44;1917999;74;39499;-69
2021/12/14 17:10:46;;;;;;;47.43;44.33;;;;;;;13.27;100.00;102836.02;1899298;72;86851;-73
2021/12/14 17:16:15;;;;;;;43.50;40.60;;;;;;;13.26;100.00;102841.32;1914550;74;39430;-73
2021/12/14 17:21:41;;;;;;;46.30;42.97;;;;;;;13.25;100.00;102841.02;1913987;72;86457;-70
2021/12/14 17:27:11;;;;;;;47.80;44.63;;;;;;;13.20;100.00;102843.72;1915650;74;39681;-75
2021/12/14 17:32:37;;;;;;;47.83;44.53;;;;;;;13.21;100.00;102849.06;1900632;74;86480;-69
2021/12/14 17:38:06;;;;;;;50.13;46.73;;;;;;;13.15;100.00;102856.19;1916671;74;39499;-74
2021/12/14 17:43:33;;;;;;;48.37;45.20;;;;;;;13.15;100.00;102860.37;1900593;73;86464;-74
2021/12/14 17:49:13;;;;;;;47.07;44.03;;;;;;;13.15;100.00;102860.37;1917568;74;39589;-69
2021/12/14 17:54:56;;;;;;;46.00;43.00;;;;;;;13.16;100.00;102858.73;1776205;80;86533;-73
2021/12/14 18:00:23;;;;;;;48.20;44.93;;;;;;;13.16;100.00;102856.49;1913214;74;39604;-69
2021/12/14 18:05:54;;;;;;;63.97;58.67;;;;;;;13.15;100.00;102856.19;1945496;71;85546;-70
2021/12/14 18:11:20;;;;;;;46.37;42.97;;;;;;;13.13;100.00;102862.59;1913729;74;39411;-74
2021/12/14 18:16:53;;;;;;;46.20;42.90;;;;;;;13.17;100.00;102862.38;1953587;73;86193;-70
2021/12/14 18:22:23;;;;;;;47.57;44.07;;;;;;;13.06;100.00;102866.05;1913555;74;39589;-74
2021/12/14 18:27:50;;;;;;;48.53;45.13;;;;;;;13.04;100.00;102876.63;1762909;79;86344;-76
2021/12/14 18:33:17;;;;;;;46.07;42.77;;;;;;;13.00;100.00;102875.44;1913866;74;46548;-75
2021/12/14 18:38:43;;;;;;;47.93;44.40;;;;;;;12.97;100.00;102878.72;1914303;72;85670;-75
2021/12/14 18:44:27;;;;;;;48.80;45.20;;;;;;;12.87;100.00;102881.34;1979213;71;40286;-72
2021/12/14 18:49:55;;;;;;;48.20;44.53;;;;;;;12.95;100.00;102894.87;1776039;80;86194;-70
2021/12/14 18:55:43;;;;;;;49.83;46.23;;;;;;;13.07;100.00;102886.73;1850875;76;85479;-71
2021/12/14 19:01:13;;;;;;;51.43;47.13;;;;;;;12.94;100.00;102894.57;1915019;74;39795;-75
2021/12/14 19:06:44;;;;;;;48.23;44.63;;;;;;;12.90;100.00;102907.33;1937757;73;86564;-72
2021/12/14 19:12:17;;;;;;;50.73;46.57;;;;;;;12.81;100.00;102916.65;1914457;74;39586;-69
2021/12/14 19:17:50;;;;;;;49.43;45.67;;;;;;;12.87;100.00;102911.48;1783802;79;86079;-74
2021/12/14 19:23:33;;;;;;;49.63;45.90;;;;;;;12.76;100.00;102913.22;1912178;74;39716;-74
2021/12/14 19:29:03;;;;;;;49.97;45.90;;;;;;;12.79;100.00;102918.86;1884432;74;40114;-75
2021/12/14 19:34:35;;;;;;;50.30;46.47;;;;;;;12.73;100.00;102916.52;1911999;74;39593;-71
2021/12/14 19:40:02;;;;;;;51.17;47.13;;;;;;;12.80;100.00;102921.92;1939662;74;33109;-71
2021/12/14 19:45:30;;;;;;;53.93;49.50;;;;;;;12.68;100.00;102918.34;1939688;74;33114;-75
2021/12/14 19:51:07;;;;;;;54.40;50.37;;;;;;;12.70;100.00;102926.78;1940446;74;33622;-77
2021/12/14 19:56:34;;;;;;;50.60;46.63;;;;;;;12.62;100.00;102932.73;1939829;74;33124;-71
2021/12/14 20:02:01;;;;;;;49.43;45.63;;;;;;;12.50;100.00;102930.53;1939553;74;33034;-78
2021/12/14 20:07:30;;;;;;;50.50;46.17;;;;;;;12.53;100.00;102923.63;1940175;74;33125;-77
2021/12/14 20:12:59;;;;;;;52.13;48.17;;;;;;;12.49;100.00;102929.41;1939628;74;33118;-70
2021/12/14 20:18:29;;;;;;;50.37;46.20;;;;;;;12.31;100.00;102932.66;1939539;74;33132;-68
2021/12/14 20:23:58;;;;;;;53.13;48.93;;;;;;;12.20;100.00;102931.28;1939572;74;32996;-70
2021/12/14 20:29:27;;;;;;;54.77;50.40;;;;;;;12.20;100.00;102936.31;1939555;74;33073;-71
2021/12/14 20:34:59;;;;;;;52.73;48.53;;;;;;;11.86;100.00;102934.41;1939862;74;33672;-77
2021/12/14 20:40:33;;;;;;;54.27;49.87;;;;;;;11.89;100.00;102934.49;1939815;74;33004;-70
2021/12/14 20:45:57;;;;;;;55.60;51.20;;;;;;;11.86;100.00;102942.77;1939700;74;33654;-76
2021/12/14 20:51:26;;;;;;;52.70;48.23;;;;;;;11.72;100.00;102949.13;1940378;74;33284;-77
2021/12/14 20:56:54;;;;;;;52.00;48.00;;;;;;;11.41;100.00;102948.06;1939729;74;33096;-70
2021/12/14 21:02:27;;;;;;;52.50;48.33;;;;;;;11.50;100.00;102948.02;1939545;74;33008;-79
2021/12/14 21:08:04;;;;;;;52.10;47.47;;;;;;;11.45;100.00;102945.64;1940782;74;33073;-76
2021/12/14 21:13:55;;;;;;;53.60;49.47;;;;;;;11.35;100.00;102946.22;1994079;71;32835;-74
2021/12/14 21:22:21;;;;;;;51.70;47.50;;;;;;;11.23;100.00;102952.31;2059640;69;32607;-70
2021/12/14 21:24:56;;;;;;;51.80;47.47;;;;;;;11.08;100.00;102966.64;1949274;73;26706;-76
2021/12/14 21:27:29;;;;;;;52.13;47.87;;;;;;;11.17;100.00;102961.05;2029270;71;26165;-75
2021/12/14 21:30:03;;;;;;;51.30;46.80;;;;;;;11.20;100.00;102959.20;2029206;70;26209;-77
2021/12/14 21:32:37;;;;;;;53.00;48.80;;;;;;;11.27;100.00;102950.74;2028726;71;26209;-77
2021/12/14 21:35:21;;;;;;;56.73;52.53;;;;;;;11.30;100.00;102955.28;2029312;71;26683;-69
2021/12/14 21:38:01;;;;;;;54.97;50.67;;;;;;;11.31;100.00;102958.37;2029206;71;26161;-78
2021/12/14 21:40:55;;;;;;;58.83;54.43;;;;;;;11.25;100.00;102957.11;2029367;70;26302;-70
2021/12/14 21:43:36;;;;;;;56.97;52.60;;;;;;;11.24;100.00;102960.97;2029356;71;26161;-72
2021/12/14 21:46:13;;;;;;;57.13;52.73;;;;;;;11.18;100.00;102967.47;2029401;71;26694;-69
2021/12/14 21:48:43;;;;;;;57.00;52.80;;;;;;;11.21;100.00;102967.84;2028922;70;26687;-69
2021/12/14 21:51:16;;;;;;;56.83;52.73;;;;;;;11.31;100.00;102965.33;2029363;70;26298;-74
2021/12/14 21:53:47;;;;;;;56.00;51.73;;;;;;;11.32;100.00;102967.04;2029317;71;26217;-75
2021/12/14 21:56:19;;;;;;;58.53;54.23;;;;;;;11.19;100.00;102961.68;2029469;70;26189;-70
2021/12/14 21:58:50;;;;;;;58.00;53.33;;;;;;;11.23;100.00;102959.27;2029565;71;26355;-68
2021/12/14 22:01:21;;;;;;;59.60;54.97;;;;;;;11.17;100.00;102958.27;2029261;70;26228;-70
2021/12/14 22:03:51;;;;;;;57.17;52.90;;;;;;;11.07;100.00;102966.37;2029233;70;26233;-70
2021/12/14 22:06:22;;;;;;;58.60;54.50;;;;;;;11.20;100.00;102972.27;2018433;71;26791;-69
2021/12/14 22:08:53;;;;;;;59.40;55.00;;;;;;;11.16;100.00;102971.91;1992489;72;26717;-74
2021/12/14 22:11:25;;;;;;;59.07;54.87;;;;;;;11.19;100.00;102976.13;1992418;72;26244;-74
2021/12/14 22:14:06;;;;;;;57.73;53.57;;;;;;;11.30;100.00;102985.03;1992430;72;26762;-75
2021/12/14 22:16:39;;;;;;;57.57;53.53;;;;;;;11.22;100.00;102977.03;1990604;71;26216;-71
2021/12/14 22:19:11;;;;;;;57.77;53.57;;;;;;;10.93;100.00;102976.83;1992688;72;26788;-76
2021/12/14 22:24:36;;;;;;;57.93;53.40;;;;;;;10.80;100.00;102969.22;1939619;74;33118;-74
2021/12/14 22:30:04;;;;;;;60.87;56.47;;;;;;;10.90;100.00;102969.51;1939578;74;33099;-72
2021/12/14 22:35:29;;;;;;;58.43;54.20;;;;;;;10.70;100.00;102982.81;1939696;74;33082;-72
2021/12/14 22:41:10;;;;;;;58.23;53.93;;;;;;;10.53;100.00;102978.44;1939671;74;33363;-71
2021/12/14 22:46:31;;;;;;;57.63;53.27;;;;;;;10.62;100.00;102974.27;1940016;74;33552;-71
2021/12/14 22:51:59;;;;;;;56.97;52.47;;;;;;;10.59;100.00;102973.35;1939562;74;33089;-71
2021/12/14 22:57:26;;;;;;;54.73;50.83;;;;;;;10.90;100.00;102980.63;1939662;74;33100;-72
2021/12/14 23:02:52;;;;;;;52.93;49.13;;;;;;;10.81;100.00;102984.28;1939738;74;33562;-73
2021/12/14 23:08:10;;;;;;;53.33;49.43;;;;;;;11.01;100.00;102983.13;2025572;71;28449;-72
2021/12/14 23:10:44;;;;;;;53.50;49.50;;;;;;;10.90;100.00;102990.36;1918784;74;26238;-72
2021/12/14 23:15:59;;;;;;;49.20;45.53;;;;;;;11.02;100.00;102975.95;2044080;69;27980;-71
2021/12/14 23:18:33;;;;;;;48.17;44.57;;;;;;;10.80;100.00;102988.14;1995980;71;26675;-72
2021/12/14 23:21:04;;;;;;;49.23;44.97;;;;;;;10.84;100.00;102990.75;1995703;71;26237;-73